sensor_id;sensor_type;location;lat;lon;timestamp;temperature;humidity
24682;DHT22;12802;53.390;-2.328;2022-12-18T00:00:46;2.70;99.90
24682;DHT22;12802;53.390;-2.328;2022-12-18T00:03:13;2.70;99.90
24682;DHT22;12802;53.390;-2.328;2022-12-18T00:05:49;2.70;99.90
24682;DHT22;12802;53.390;-2.328;2022-12-18T00:08:15;2.70;99.90
24682;DHT22;12802;53.390;-2.328;2022-12-18T00:10:41;2.70;99.90
24682;DHT22;12802;53.390;-2.328;2022-12-18T00:13:07;2.70;99.90
24682;DHT22;12802;53.390;-2.328;2022-12-18T00:15:34;2.70;99.90
24682;DHT22;12802;53.390;-2.328;2022-12-18T00:18:00;2.70;99.90
24682;DHT22;12802;53.390;-2.328;2022-12-18T00:20:26;2.70;99.90
24682;DHT22;12802;53.390;-2.328;2022-12-18T00:22:52;2.60;99.90
24682;DHT22;12802;53.390;-2.328;2022-12-18T00:25:18;2.50;99.90
24682;DHT22;12802;53.390;-2.328;2022-12-18T00:27:44;2.50;99.90
24682;DHT22;12802;53.390;-2.328;2022-12-18T00:30:10;2.50;99.90
24682;DHT22;12802;53.390;-2.328;2022-12-18T00:32:36;2.50;99.90
24682;DHT22;12802;53.390;-2.328;2022-12-18T00:35:03;2.40;99.90
24682;DHT22;12802;53.390;-2.328;2022-12-18T00:37:30;2.40;99.90
24682;DHT22;12802;53.390;-2.328;2022-12-18T00:39:56;2.40;99.90
24682;DHT22;12802;53.390;-2.328;2022-12-18T00:42:21;2.40;99.90
24682;DHT22;12802;53.390;-2.328;2022-12-18T00:45:06;2.30;99.90
24682;DHT22;12802;53.390;-2.328;2022-12-18T00:47:32;2.30;99.90
24682;DHT22;12802;53.390;-2.328;2022-12-18T00:49:58;2.30;99.90
24682;DHT22;12802;53.390;-2.328;2022-12-18T00:52:23;2.20;99.90
24682;DHT22;12802;53.390;-2.328;2022-12-18T00:54:49;2.20;99.90
24682;DHT22;12802;53.390;-2.328;2022-12-18T00:57:15;2.10;99.90
24682;DHT22;12802;53.390;-2.328;2022-12-18T00:59:42;2.20;99.90
24682;DHT22;12802;53.390;-2.328;2022-12-18T01:02:07;2.10;99.90
24682;DHT22;12802;53.390;-2.328;2022-12-18T01:04:33;2.10;99.90
24682;DHT22;12802;53.390;-2.328;2022-12-18T01:06:59;2.10;99.90
24682;DHT22;12802;53.390;-2.328;2022-12-18T01:09:26;2.10;99.90
24682;DHT22;12802;53.390;-2.328;2022-12-18T01:11:52;2.10;99.90
24682;DHT22;12802;53.390;-2.328;2022-12-18T01:14:18;2.10;99.90
24682;DHT22;12802;53.390;-2.328;2022-12-18T01:16:43;2.00;99.90
24682;DHT22;12802;53.390;-2.328;2022-12-18T01:19:09;2.00;99.90
24682;DHT22;12802;53.390;-2.328;2022-12-18T01:21:35;2.00;99.90
24682;DHT22;12802;53.390;-2.328;2022-12-18T01:24:03;1.90;99.90
24682;DHT22;12802;53.390;-2.328;2022-12-18T01:26:29;2.00;99.90
24682;DHT22;12802;53.390;-2.328;2022-12-18T01:28:56;1.90;99.90
24682;DHT22;12802;53.390;-2.328;2022-12-18T01:31:28;1.90;99.90
24682;DHT22;12802;53.390;-2.328;2022-12-18T01:33:54;1.90;99.90
24682;DHT22;12802;53.390;-2.328;2022-12-18T01:36:22;1.90;99.90
24682;DHT22;12802;53.390;-2.328;2022-12-18T01:38:49;1.90;99.90
24682;DHT22;12802;53.390;-2.328;2022-12-18T01:41:17;1.90;99.90
24682;DHT22;12802;53.390;-2.328;2022-12-18T01:43:57;1.90;99.90
24682;DHT22;12802;53.390;-2.328;2022-12-18T01:46:24;1.90;99.90
24682;DHT22;12802;53.390;-2.328;2022-12-18T01:49:01;1.90;99.90
24682;DHT22;12802;53.390;-2.328;2022-12-18T01:51:28;2.00;99.90
24682;DHT22;12802;53.390;-2.328;2022-12-18T01:53:55;2.00;99.90
24682;DHT22;12802;53.390;-2.328;2022-12-18T01:56:21;1.90;99.90
24682;DHT22;12802;53.390;-2.328;2022-12-18T02:01:17;1.90;99.90
24682;DHT22;12802;53.390;-2.328;2022-12-18T02:03:44;1.90;99.90
24682;DHT22;12802;53.390;-2.328;2022-12-18T02:06:12;1.80;99.90
24682;DHT22;12802;53.390;-2.328;2022-12-18T02:08:58;1.80;99.90
24682;DHT22;12802;53.390;-2.328;2022-12-18T02:16:43;1.80;99.90
24682;DHT22;12802;53.390;-2.328;2022-12-18T02:27:35;1.60;99.90
24682;DHT22;12802;53.390;-2.328;2022-12-18T02:30:04;1.60;99.90
24682;DHT22;12802;53.390;-2.328;2022-12-18T02:32:35;1.60;99.90
24682;DHT22;12802;53.390;-2.328;2022-12-18T02:35:04;1.50;99.90
24682;DHT22;12802;53.390;-2.328;2022-12-18T02:37:33;1.60;99.90
24682;DHT22;12802;53.390;-2.328;2022-12-18T02:40:03;1.50;99.90
24682;DHT22;12802;53.390;-2.328;2022-12-18T02:42:30;1.50;99.90
24682;DHT22;12802;53.390;-2.328;2022-12-18T02:44:58;1.50;99.90
24682;DHT22;12802;53.390;-2.328;2022-12-18T02:47:28;1.50;99.90
24682;DHT22;12802;53.390;-2.328;2022-12-18T02:52:31;1.50;99.90
24682;DHT22;12802;53.390;-2.328;2022-12-18T02:57:48;1.50;99.90
24682;DHT22;12802;53.390;-2.328;2022-12-18T03:00:21;1.40;99.90
24682;DHT22;12802;53.390;-2.328;2022-12-18T03:03:24;1.50;99.90
24682;DHT22;12802;53.390;-2.328;2022-12-18T03:06:00;1.40;99.90
24682;DHT22;12802;53.390;-2.328;2022-12-18T03:08:29;1.50;99.90
24682;DHT22;12802;53.390;-2.328;2022-12-18T03:11:09;1.40;99.90
24682;DHT22;12802;53.390;-2.328;2022-12-18T03:13:37;1.40;99.90
24682;DHT22;12802;53.390;-2.328;2022-12-18T03:16:06;1.40;99.90
24682;DHT22;12802;53.390;-2.328;2022-12-18T03:18:48;1.30;99.90
24682;DHT22;12802;53.390;-2.328;2022-12-18T03:21:16;1.40;99.90
24682;DHT22;12802;53.390;-2.328;2022-12-18T03:23:48;1.40;99.90
24682;DHT22;12802;53.390;-2.328;2022-12-18T03:26:17;1.30;99.90
24682;DHT22;12802;53.390;-2.328;2022-12-18T03:28:49;1.30;99.90
24682;DHT22;12802;53.390;-2.328;2022-12-18T03:31:18;1.40;99.90
24682;DHT22;12802;53.390;-2.328;2022-12-18T03:33:54;1.40;99.90
24682;DHT22;12802;53.390;-2.328;2022-12-18T03:36:25;1.40;99.90
24682;DHT22;12802;53.390;-2.328;2022-12-18T03:38:52;1.40;99.90
24682;DHT22;12802;53.390;-2.328;2022-12-18T03:41:31;1.50;99.90
24682;DHT22;12802;53.390;-2.328;2022-12-18T03:50:11;1.50;99.90
24682;DHT22;12802;53.390;-2.328;2022-12-18T03:55:12;1.50;99.90
24682;DHT22;12802;53.390;-2.328;2022-12-18T03:57:41;1.50;99.90
24682;DHT22;12802;53.390;-2.328;2022-12-18T04:00:13;1.50;99.90
24682;DHT22;12802;53.390;-2.328;2022-12-18T04:02:51;1.60;99.90
24682;DHT22;12802;53.390;-2.328;2022-12-18T04:05:24;1.60;99.90
24682;DHT22;12802;53.390;-2.328;2022-12-18T04:07:51;1.50;99.90
24682;DHT22;12802;53.390;-2.328;2022-12-18T04:10:18;1.50;99.90
24682;DHT22;12802;53.390;-2.328;2022-12-18T04:12:44;1.50;99.90
24682;DHT22;12802;53.390;-2.328;2022-12-18T04:15:12;1.50;99.90
24682;DHT22;12802;53.390;-2.328;2022-12-18T04:17:42;1.50;99.90
24682;DHT22;12802;53.390;-2.328;2022-12-18T04:20:09;1.50;99.90
24682;DHT22;12802;53.390;-2.328;2022-12-18T04:22:38;1.50;99.90
24682;DHT22;12802;53.390;-2.328;2022-12-18T04:25:04;1.50;99.90
24682;DHT22;12802;53.390;-2.328;2022-12-18T04:27:36;1.50;99.90
24682;DHT22;12802;53.390;-2.328;2022-12-18T04:30:04;1.50;99.90
24682;DHT22;12802;53.390;-2.328;2022-12-18T04:32:30;1.60;99.90
24682;DHT22;12802;53.390;-2.328;2022-12-18T04:34:56;1.60;99.90
24682;DHT22;12802;53.390;-2.328;2022-12-18T04:37:22;1.60;99.90
24682;DHT22;12802;53.390;-2.328;2022-12-18T04:39:49;1.60;99.90
24682;DHT22;12802;53.390;-2.328;2022-12-18T04:42:22;1.60;99.90
24682;DHT22;12802;53.390;-2.328;2022-12-18T04:44:48;1.60;99.90
24682;DHT22;12802;53.390;-2.328;2022-12-18T04:47:13;1.60;99.90
24682;DHT22;12802;53.390;-2.328;2022-12-18T04:49:40;1.60;99.90
24682;DHT22;12802;53.390;-2.328;2022-12-18T04:52:07;1.60;99.90
24682;DHT22;12802;53.390;-2.328;2022-12-18T04:54:33;1.70;99.90
24682;DHT22;12802;53.390;-2.328;2022-12-18T04:56:58;1.70;99.90
24682;DHT22;12802;53.390;-2.328;2022-12-18T04:59:24;1.70;99.90
24682;DHT22;12802;53.390;-2.328;2022-12-18T05:01:50;1.70;99.90
24682;DHT22;12802;53.390;-2.328;2022-12-18T05:04:15;1.70;99.90
24682;DHT22;12802;53.390;-2.328;2022-12-18T05:06:41;1.80;99.90
24682;DHT22;12802;53.390;-2.328;2022-12-18T05:09:07;1.80;99.90
24682;DHT22;12802;53.390;-2.328;2022-12-18T05:11:33;1.80;99.90
24682;DHT22;12802;53.390;-2.328;2022-12-18T05:13:59;1.80;99.90
24682;DHT22;12802;53.390;-2.328;2022-12-18T05:16:24;1.80;99.90
24682;DHT22;12802;53.390;-2.328;2022-12-18T05:18:50;1.80;99.90
24682;DHT22;12802;53.390;-2.328;2022-12-18T05:21:16;1.70;99.90
24682;DHT22;12802;53.390;-2.328;2022-12-18T05:23:41;1.80;99.90
24682;DHT22;12802;53.390;-2.328;2022-12-18T05:26:16;1.70;99.90
24682;DHT22;12802;53.390;-2.328;2022-12-18T05:28:43;1.80;99.90
24682;DHT22;12802;53.390;-2.328;2022-12-18T05:31:09;1.80;99.90
24682;DHT22;12802;53.390;-2.328;2022-12-18T05:33:35;1.80;99.90
24682;DHT22;12802;53.390;-2.328;2022-12-18T05:36:06;1.90;99.90
24682;DHT22;12802;53.390;-2.328;2022-12-18T05:38:34;1.90;99.90
24682;DHT22;12802;53.390;-2.328;2022-12-18T05:41:00;1.90;99.90
24682;DHT22;12802;53.390;-2.328;2022-12-18T05:43:26;1.90;99.90
24682;DHT22;12802;53.390;-2.328;2022-12-18T05:45:52;1.90;99.90
24682;DHT22;12802;53.390;-2.328;2022-12-18T05:48:19;1.90;99.90
24682;DHT22;12802;53.390;-2.328;2022-12-18T05:50:46;1.90;99.90
24682;DHT22;12802;53.390;-2.328;2022-12-18T05:53:14;1.80;99.90
24682;DHT22;12802;53.390;-2.328;2022-12-18T05:55:41;1.80;99.90
24682;DHT22;12802;53.390;-2.328;2022-12-18T05:58:08;1.80;99.90
24682;DHT22;12802;53.390;-2.328;2022-12-18T06:00:35;1.80;99.90
24682;DHT22;12802;53.390;-2.328;2022-12-18T06:03:06;1.80;99.90
24682;DHT22;12802;53.390;-2.328;2022-12-18T06:05:37;1.80;99.90
24682;DHT22;12802;53.390;-2.328;2022-12-18T06:08:03;1.80;99.90
24682;DHT22;12802;53.390;-2.328;2022-12-18T06:10:29;1.80;99.90
24682;DHT22;12802;53.390;-2.328;2022-12-18T06:12:55;1.80;99.90
24682;DHT22;12802;53.390;-2.328;2022-12-18T06:15:20;1.80;99.90
24682;DHT22;12802;53.390;-2.328;2022-12-18T06:17:46;1.80;99.90
24682;DHT22;12802;53.390;-2.328;2022-12-18T06:20:12;1.80;99.90
24682;DHT22;12802;53.390;-2.328;2022-12-18T06:22:37;1.80;99.90
24682;DHT22;12802;53.390;-2.328;2022-12-18T06:25:03;1.80;99.90
24682;DHT22;12802;53.390;-2.328;2022-12-18T06:27:29;1.80;99.90
24682;DHT22;12802;53.390;-2.328;2022-12-18T06:29:55;1.80;99.90
24682;DHT22;12802;53.390;-2.328;2022-12-18T06:32:21;1.70;99.90
24682;DHT22;12802;53.390;-2.328;2022-12-18T06:34:47;1.80;99.90
24682;DHT22;12802;53.390;-2.328;2022-12-18T06:37:12;1.80;99.90
24682;DHT22;12802;53.390;-2.328;2022-12-18T06:39:38;1.80;99.90
24682;DHT22;12802;53.390;-2.328;2022-12-18T06:42:04;1.80;99.90
24682;DHT22;12802;53.390;-2.328;2022-12-18T06:44:30;1.80;99.90
24682;DHT22;12802;53.390;-2.328;2022-12-18T06:46:55;1.90;99.90
24682;DHT22;12802;53.390;-2.328;2022-12-18T06:49:21;1.80;99.90
24682;DHT22;12802;53.390;-2.328;2022-12-18T06:51:47;1.80;99.90
24682;DHT22;12802;53.390;-2.328;2022-12-18T06:54:12;1.80;99.90
24682;DHT22;12802;53.390;-2.328;2022-12-18T06:56:38;1.90;99.90
24682;DHT22;12802;53.390;-2.328;2022-12-18T06:59:04;1.90;99.90
24682;DHT22;12802;53.390;-2.328;2022-12-18T07:01:30;1.90;99.90
24682;DHT22;12802;53.390;-2.328;2022-12-18T07:03:57;1.90;99.90
24682;DHT22;12802;53.390;-2.328;2022-12-18T07:06:24;1.90;99.90
24682;DHT22;12802;53.390;-2.328;2022-12-18T07:08:52;1.90;99.90
24682;DHT22;12802;53.390;-2.328;2022-12-18T07:11:19;2.00;99.90
24682;DHT22;12802;53.390;-2.328;2022-12-18T07:13:46;1.90;99.90
24682;DHT22;12802;53.390;-2.328;2022-12-18T07:16:17;2.00;99.90
24682;DHT22;12802;53.390;-2.328;2022-12-18T07:18:43;2.00;99.90
24682;DHT22;12802;53.390;-2.328;2022-12-18T07:21:12;2.00;99.90
24682;DHT22;12802;53.390;-2.328;2022-12-18T07:23:38;2.00;99.90
24682;DHT22;12802;53.390;-2.328;2022-12-18T07:26:06;2.10;99.90
24682;DHT22;12802;53.390;-2.328;2022-12-18T07:28:33;2.00;99.90
24682;DHT22;12802;53.390;-2.328;2022-12-18T07:31:11;2.00;99.90
24682;DHT22;12802;53.390;-2.328;2022-12-18T07:33:37;2.00;99.90
24682;DHT22;12802;53.390;-2.328;2022-12-18T07:36:05;2.00;99.90
24682;DHT22;12802;53.390;-2.328;2022-12-18T07:38:31;2.00;99.90
24682;DHT22;12802;53.390;-2.328;2022-12-18T07:41:05;2.00;99.90
24682;DHT22;12802;53.390;-2.328;2022-12-18T07:43:31;2.00;99.90
24682;DHT22;12802;53.390;-2.328;2022-12-18T07:45:57;2.00;99.90
24682;DHT22;12802;53.390;-2.328;2022-12-18T07:48:23;2.00;99.90
24682;DHT22;12802;53.390;-2.328;2022-12-18T07:50:49;2.00;99.90
24682;DHT22;12802;53.390;-2.328;2022-12-18T07:53:15;2.00;99.90
24682;DHT22;12802;53.390;-2.328;2022-12-18T07:55:41;2.00;99.90
24682;DHT22;12802;53.390;-2.328;2022-12-18T07:58:08;2.10;99.90
24682;DHT22;12802;53.390;-2.328;2022-12-18T08:00:34;2.10;99.90
24682;DHT22;12802;53.390;-2.328;2022-12-18T08:03:00;2.00;99.90
24682;DHT22;12802;53.390;-2.328;2022-12-18T08:05:26;2.00;99.90
24682;DHT22;12802;53.390;-2.328;2022-12-18T08:07:53;2.10;99.90
24682;DHT22;12802;53.390;-2.328;2022-12-18T08:10:19;2.10;99.90
24682;DHT22;12802;53.390;-2.328;2022-12-18T08:12:45;2.20;99.90
24682;DHT22;12802;53.390;-2.328;2022-12-18T08:15:14;2.20;99.90
24682;DHT22;12802;53.390;-2.328;2022-12-18T08:17:39;2.20;99.90
24682;DHT22;12802;53.390;-2.328;2022-12-18T08:20:06;2.10;99.90
24682;DHT22;12802;53.390;-2.328;2022-12-18T08:22:36;2.10;99.90
24682;DHT22;12802;53.390;-2.328;2022-12-18T08:25:03;2.10;99.90
24682;DHT22;12802;53.390;-2.328;2022-12-18T08:27:29;2.10;99.90
24682;DHT22;12802;53.390;-2.328;2022-12-18T08:29:55;2.00;99.90
24682;DHT22;12802;53.390;-2.328;2022-12-18T08:32:21;2.00;99.90
24682;DHT22;12802;53.390;-2.328;2022-12-18T08:34:46;2.00;99.90
24682;DHT22;12802;53.390;-2.328;2022-12-18T08:37:13;1.90;99.90
24682;DHT22;12802;53.390;-2.328;2022-12-18T08:39:38;1.90;99.90
24682;DHT22;12802;53.390;-2.328;2022-12-18T08:42:04;2.00;99.90
24682;DHT22;12802;53.390;-2.328;2022-12-18T08:44:48;2.00;99.90
24682;DHT22;12802;53.390;-2.328;2022-12-18T08:47:14;1.90;99.90
24682;DHT22;12802;53.390;-2.328;2022-12-18T08:49:40;1.90;99.90
24682;DHT22;12802;53.390;-2.328;2022-12-18T08:52:06;1.90;99.90
24682;DHT22;12802;53.390;-2.328;2022-12-18T08:54:31;2.00;99.90
24682;DHT22;12802;53.390;-2.328;2022-12-18T08:56:57;1.90;99.90
24682;DHT22;12802;53.390;-2.328;2022-12-18T08:59:23;1.90;99.90
24682;DHT22;12802;53.390;-2.328;2022-12-18T09:01:49;1.90;99.90
24682;DHT22;12802;53.390;-2.328;2022-12-18T09:04:15;2.00;99.90
24682;DHT22;12802;53.390;-2.328;2022-12-18T09:06:41;2.00;99.90
24682;DHT22;12802;53.390;-2.328;2022-12-18T09:09:07;2.10;99.90
24682;DHT22;12802;53.390;-2.328;2022-12-18T09:11:33;2.10;99.90
24682;DHT22;12802;53.390;-2.328;2022-12-18T09:14:00;2.10;99.90
24682;DHT22;12802;53.390;-2.328;2022-12-18T09:16:27;2.10;99.90
24682;DHT22;12802;53.390;-2.328;2022-12-18T09:18:55;2.10;99.90
24682;DHT22;12802;53.390;-2.328;2022-12-18T09:21:26;2.20;99.90
24682;DHT22;12802;53.390;-2.328;2022-12-18T09:23:53;2.20;99.90
24682;DHT22;12802;53.390;-2.328;2022-12-18T09:26:21;2.20;99.90
24682;DHT22;12802;53.390;-2.328;2022-12-18T09:28:47;2.30;99.90
24682;DHT22;12802;53.390;-2.328;2022-12-18T09:31:13;2.30;99.90
24682;DHT22;12802;53.390;-2.328;2022-12-18T09:33:39;2.30;99.90
24682;DHT22;12802;53.390;-2.328;2022-12-18T09:36:07;2.30;99.90
24682;DHT22;12802;53.390;-2.328;2022-12-18T09:38:33;2.30;99.90
24682;DHT22;12802;53.390;-2.328;2022-12-18T09:41:50;2.40;99.90
24682;DHT22;12802;53.390;-2.328;2022-12-18T09:43:53;2.40;99.90
24682;DHT22;12802;53.390;-2.328;2022-12-18T09:46:29;2.40;99.90
24682;DHT22;12802;53.390;-2.328;2022-12-18T09:49:02;2.50;99.90
24682;DHT22;12802;53.390;-2.328;2022-12-18T09:51:37;2.50;99.90
24682;DHT22;12802;53.390;-2.328;2022-12-18T09:54:12;2.60;99.90
24682;DHT22;12802;53.390;-2.328;2022-12-18T09:56:41;2.60;99.90
24682;DHT22;12802;53.390;-2.328;2022-12-18T09:59:17;2.50;99.90
24682;DHT22;12802;53.390;-2.328;2022-12-18T10:01:44;2.50;99.90
24682;DHT22;12802;53.390;-2.328;2022-12-18T10:04:10;2.60;99.90
24682;DHT22;12802;53.390;-2.328;2022-12-18T10:09:36;2.60;99.90
24682;DHT22;12802;53.390;-2.328;2022-12-18T10:14:36;2.50;99.90
24682;DHT22;12802;53.390;-2.328;2022-12-18T10:20:05;2.50;99.90
24682;DHT22;12802;53.390;-2.328;2022-12-18T10:25:53;2.50;99.90
24682;DHT22;12802;53.390;-2.328;2022-12-18T10:28:21;2.50;99.90
24682;DHT22;12802;53.390;-2.328;2022-12-18T10:30:47;2.50;99.90
24682;DHT22;12802;53.390;-2.328;2022-12-18T10:33:20;2.50;99.90
24682;DHT22;12802;53.390;-2.328;2022-12-18T10:35:50;2.60;99.90
24682;DHT22;12802;53.390;-2.328;2022-12-18T10:41:06;2.60;99.90
24682;DHT22;12802;53.390;-2.328;2022-12-18T10:43:39;2.60;99.90
24682;DHT22;12802;53.390;-2.328;2022-12-18T10:51:09;2.60;99.90
24682;DHT22;12802;53.390;-2.328;2022-12-18T10:53:36;2.60;99.90
24682;DHT22;12802;53.390;-2.328;2022-12-18T10:56:05;2.70;99.90
24682;DHT22;12802;53.390;-2.328;2022-12-18T10:58:36;2.70;99.90
24682;DHT22;12802;53.390;-2.328;2022-12-18T11:03:38;2.70;99.90
24682;DHT22;12802;53.390;-2.328;2022-12-18T11:06:19;2.80;99.90
24682;DHT22;12802;53.390;-2.328;2022-12-18T11:09:19;2.70;99.90
24682;DHT22;12802;53.390;-2.328;2022-12-18T11:11:53;2.80;99.90
24682;DHT22;12802;53.390;-2.328;2022-12-18T11:14:28;2.80;99.90
24682;DHT22;12802;53.390;-2.328;2022-12-18T11:16:56;2.70;99.90
24682;DHT22;12802;53.390;-2.328;2022-12-18T11:19:39;2.70;99.90
24682;DHT22;12802;53.390;-2.328;2022-12-18T11:22:26;2.70;99.90
24682;DHT22;12802;53.390;-2.328;2022-12-18T11:25:05;2.80;99.90
24682;DHT22;12802;53.390;-2.328;2022-12-18T11:27:32;2.80;99.90
24682;DHT22;12802;53.390;-2.328;2022-12-18T11:30:35;2.80;99.90
24682;DHT22;12802;53.390;-2.328;2022-12-18T11:33:05;2.80;99.90
24682;DHT22;12802;53.390;-2.328;2022-12-18T11:38:20;3.00;99.90
24682;DHT22;12802;53.390;-2.328;2022-12-18T11:40:56;3.00;99.90
24682;DHT22;12802;53.390;-2.328;2022-12-18T11:46:14;2.90;99.90
24682;DHT22;12802;53.390;-2.328;2022-12-18T11:49:20;2.90;99.90
24682;DHT22;12802;53.390;-2.328;2022-12-18T11:54:26;2.90;99.90
24682;DHT22;12802;53.390;-2.328;2022-12-18T11:57:23;3.00;99.90
24682;DHT22;12802;53.390;-2.328;2022-12-18T11:59:55;3.00;99.90
24682;DHT22;12802;53.390;-2.328;2022-12-18T12:08:10;3.10;99.90
24682;DHT22;12802;53.390;-2.328;2022-12-18T12:10:55;3.00;99.90
24682;DHT22;12802;53.390;-2.328;2022-12-18T12:13:53;3.10;99.90
24682;DHT22;12802;53.390;-2.328;2022-12-18T12:16:22;3.00;99.90
24682;DHT22;12802;53.390;-2.328;2022-12-18T12:19:16;3.10;99.90
24682;DHT22;12802;53.390;-2.328;2022-12-18T12:21:57;3.10;99.90
24682;DHT22;12802;53.390;-2.328;2022-12-18T12:38:41;3.40;99.90
24682;DHT22;12802;53.390;-2.328;2022-12-18T12:41:17;3.40;99.90
24682;DHT22;12802;53.390;-2.328;2022-12-18T12:44:06;3.40;99.90
24682;DHT22;12802;53.390;-2.328;2022-12-18T12:46:38;3.40;99.90
24682;DHT22;12802;53.390;-2.328;2022-12-18T12:49:11;3.30;99.90
24682;DHT22;12802;53.390;-2.328;2022-12-18T12:51:41;3.30;99.90
24682;DHT22;12802;53.390;-2.328;2022-12-18T12:54:13;3.30;99.90
24682;DHT22;12802;53.390;-2.328;2022-12-18T13:10:36;3.20;99.90
24682;DHT22;12802;53.390;-2.328;2022-12-18T13:13:08;3.20;99.90
24682;DHT22;12802;53.390;-2.328;2022-12-18T13:20:42;2.90;99.90
24682;DHT22;12802;53.390;-2.328;2022-12-18T13:30:56;2.90;99.90
24682;DHT22;12802;53.390;-2.328;2022-12-18T13:36:02;3.00;99.90
24682;DHT22;12802;53.390;-2.328;2022-12-18T13:38:36;3.00;99.90
24682;DHT22;12802;53.390;-2.328;2022-12-18T13:41:24;3.00;99.90
24682;DHT22;12802;53.390;-2.328;2022-12-18T13:43:55;3.00;99.90
24682;DHT22;12802;53.390;-2.328;2022-12-18T13:46:30;3.10;99.90
24682;DHT22;12802;53.390;-2.328;2022-12-18T13:51:22;3.10;99.90
24682;DHT22;12802;53.390;-2.328;2022-12-18T13:56:42;3.20;99.90
24682;DHT22;12802;53.390;-2.328;2022-12-18T13:59:37;3.30;99.90
24682;DHT22;12802;53.390;-2.328;2022-12-18T14:02:15;3.30;99.90
24682;DHT22;12802;53.390;-2.328;2022-12-18T14:04:41;3.30;99.90
24682;DHT22;12802;53.390;-2.328;2022-12-18T14:07:18;3.30;99.90
24682;DHT22;12802;53.390;-2.328;2022-12-18T14:10:03;3.40;99.90
24682;DHT22;12802;53.390;-2.328;2022-12-18T14:12:31;3.30;99.90
24682;DHT22;12802;53.390;-2.328;2022-12-18T14:15:40;3.30;99.90
24682;DHT22;12802;53.390;-2.328;2022-12-18T14:21:25;3.30;99.90
24682;DHT22;12802;53.390;-2.328;2022-12-18T14:24:16;3.40;99.90
24682;DHT22;12802;53.390;-2.328;2022-12-18T14:26:43;3.40;99.90
24682;DHT22;12802;53.390;-2.328;2022-12-18T14:29:35;3.50;99.90
24682;DHT22;12802;53.390;-2.328;2022-12-18T14:32:11;3.50;99.90
24682;DHT22;12802;53.390;-2.328;2022-12-18T14:34:39;3.50;99.90
24682;DHT22;12802;53.390;-2.328;2022-12-18T14:37:07;3.60;99.90
24682;DHT22;12802;53.390;-2.328;2022-12-18T14:39:34;3.60;99.90
24682;DHT22;12802;53.390;-2.328;2022-12-18T14:42:00;3.60;99.90
24682;DHT22;12802;53.390;-2.328;2022-12-18T14:44:26;3.60;99.90
24682;DHT22;12802;53.390;-2.328;2022-12-18T14:46:52;3.60;99.90
24682;DHT22;12802;53.390;-2.328;2022-12-18T14:51:53;3.80;99.90
24682;DHT22;12802;53.390;-2.328;2022-12-18T14:54:20;3.80;99.90
24682;DHT22;12802;53.390;-2.328;2022-12-18T14:56:51;3.90;99.90
24682;DHT22;12802;53.390;-2.328;2022-12-18T14:59:23;3.90;99.90
24682;DHT22;12802;53.390;-2.328;2022-12-18T15:02:24;4.00;99.90
24682;DHT22;12802;53.390;-2.328;2022-12-18T15:05:23;4.00;99.90
24682;DHT22;12802;53.390;-2.328;2022-12-18T15:07:52;4.10;99.90
24682;DHT22;12802;53.390;-2.328;2022-12-18T15:10:22;4.10;99.90
24682;DHT22;12802;53.390;-2.328;2022-12-18T15:13:15;4.10;99.90
24682;DHT22;12802;53.390;-2.328;2022-12-18T15:15:47;4.20;99.90
24682;DHT22;12802;53.390;-2.328;2022-12-18T15:18:16;4.20;99.90
24682;DHT22;12802;53.390;-2.328;2022-12-18T15:23:22;4.30;99.90
24682;DHT22;12802;53.390;-2.328;2022-12-18T15:25:55;4.30;99.90
24682;DHT22;12802;53.390;-2.328;2022-12-18T15:28:39;4.40;99.90
24682;DHT22;12802;53.390;-2.328;2022-12-18T15:36:13;4.40;99.90
24682;DHT22;12802;53.390;-2.328;2022-12-18T15:38:39;4.40;99.90
24682;DHT22;12802;53.390;-2.328;2022-12-18T15:41:05;4.40;99.90
24682;DHT22;12802;53.390;-2.328;2022-12-18T15:43:31;4.40;99.90
24682;DHT22;12802;53.390;-2.328;2022-12-18T15:46:13;4.40;99.90
24682;DHT22;12802;53.390;-2.328;2022-12-18T15:48:41;4.50;99.90
24682;DHT22;12802;53.390;-2.328;2022-12-18T15:51:19;4.60;99.90
24682;DHT22;12802;53.390;-2.328;2022-12-18T15:53:50;4.60;99.90
24682;DHT22;12802;53.390;-2.328;2022-12-18T15:56:16;4.60;99.90
24682;DHT22;12802;53.390;-2.328;2022-12-18T15:59:01;4.60;99.90
24682;DHT22;12802;53.390;-2.328;2022-12-18T16:01:30;4.70;99.90
24682;DHT22;12802;53.390;-2.328;2022-12-18T16:03:57;4.80;99.90
24682;DHT22;12802;53.390;-2.328;2022-12-18T16:06:23;4.80;99.90
24682;DHT22;12802;53.390;-2.328;2022-12-18T16:08:49;4.80;99.90
24682;DHT22;12802;53.390;-2.328;2022-12-18T16:11:27;4.80;99.90
24682;DHT22;12802;53.390;-2.328;2022-12-18T16:14:45;4.80;99.90
24682;DHT22;12802;53.390;-2.328;2022-12-18T16:17:12;4.70;99.90
24682;DHT22;12802;53.390;-2.328;2022-12-18T16:19:38;4.70;99.90
24682;DHT22;12802;53.390;-2.328;2022-12-18T16:22:04;4.70;99.90
24682;DHT22;12802;53.390;-2.328;2022-12-18T16:24:32;4.60;99.90
24682;DHT22;12802;53.390;-2.328;2022-12-18T16:26:59;4.60;99.90
24682;DHT22;12802;53.390;-2.328;2022-12-18T16:29:26;4.60;99.90
24682;DHT22;12802;53.390;-2.328;2022-12-18T16:31:54;4.60;99.90
24682;DHT22;12802;53.390;-2.328;2022-12-18T16:34:20;4.50;99.90
24682;DHT22;12802;53.390;-2.328;2022-12-18T16:36:57;4.60;99.90
24682;DHT22;12802;53.390;-2.328;2022-12-18T16:39:24;4.60;99.90
24682;DHT22;12802;53.390;-2.328;2022-12-18T16:41:51;4.60;99.90
24682;DHT22;12802;53.390;-2.328;2022-12-18T16:44:17;4.60;99.90
24682;DHT22;12802;53.390;-2.328;2022-12-18T16:46:43;4.60;99.90
24682;DHT22;12802;53.390;-2.328;2022-12-18T16:49:15;4.60;99.90
24682;DHT22;12802;53.390;-2.328;2022-12-18T16:51:41;4.60;99.90
24682;DHT22;12802;53.390;-2.328;2022-12-18T16:54:07;4.60;99.90
24682;DHT22;12802;53.390;-2.328;2022-12-18T16:56:33;4.60;99.90
24682;DHT22;12802;53.390;-2.328;2022-12-18T16:59:00;4.70;99.90
24682;DHT22;12802;53.390;-2.328;2022-12-18T17:01:28;4.80;99.90
24682;DHT22;12802;53.390;-2.328;2022-12-18T17:03:58;4.80;99.90
24682;DHT22;12802;53.390;-2.328;2022-12-18T17:06:27;4.90;99.90
24682;DHT22;12802;53.390;-2.328;2022-12-18T17:08:55;4.90;99.90
24682;DHT22;12802;53.390;-2.328;2022-12-18T17:11:23;4.90;99.90
24682;DHT22;12802;53.390;-2.328;2022-12-18T17:13:49;4.90;99.90
24682;DHT22;12802;53.390;-2.328;2022-12-18T17:16:15;4.80;99.90
24682;DHT22;12802;53.390;-2.328;2022-12-18T17:18:42;4.90;99.90
24682;DHT22;12802;53.390;-2.328;2022-12-18T17:21:09;4.90;99.90
24682;DHT22;12802;53.390;-2.328;2022-12-18T17:23:36;5.00;99.90
24682;DHT22;12802;53.390;-2.328;2022-12-18T17:26:02;5.00;99.90
24682;DHT22;12802;53.390;-2.328;2022-12-18T17:28:29;5.00;99.90
24682;DHT22;12802;53.390;-2.328;2022-12-18T17:30:56;5.00;99.90
24682;DHT22;12802;53.390;-2.328;2022-12-18T17:33:23;5.00;99.90
24682;DHT22;12802;53.390;-2.328;2022-12-18T17:35:49;5.00;99.90
24682;DHT22;12802;53.390;-2.328;2022-12-18T17:38:15;5.00;99.90
24682;DHT22;12802;53.390;-2.328;2022-12-18T17:40:41;5.10;99.90
24682;DHT22;12802;53.390;-2.328;2022-12-18T17:43:08;5.10;99.90
24682;DHT22;12802;53.390;-2.328;2022-12-18T17:45:35;5.10;99.90
24682;DHT22;12802;53.390;-2.328;2022-12-18T17:48:02;5.10;99.90
24682;DHT22;12802;53.390;-2.328;2022-12-18T17:50:28;5.20;99.90
24682;DHT22;12802;53.390;-2.328;2022-12-18T17:52:57;5.20;99.90
24682;DHT22;12802;53.390;-2.328;2022-12-18T17:55:23;5.20;99.90